Weather at Cayley A J Flying Ranch Airport

Public forecast

Using degrees Celsius for public forecast. Weather courtesy of forecast.io.

Closest aviation weather report (METAR) to Cayley A J Flying Ranch Airport

Closest report is Calgary International Airport, 41.1 nm (76.2 km) NNW.

2024/05/24 01:00 (retrieved 15 minutes ago)

CYYC 240100Z 02008KT 15SM VCSH BKN024CB BKN081 BKN250 09/04 A2989 RMK CB7AC1CI1 AC TR CI TR CB ALQDS MOVG S SLP148

Closest aviation forecast (TAF) to Cayley A J Flying Ranch Airport

Forecast is more than 6 hours old.

Closest forecast is Edmonton (CFB Namao) Heliport, 193.2 nm (357.9 km) N.

2024/05/23 18:06 Ammendment (retrieved 7 hours ago)

TAF AMD TAF AMD CYED 232103Z 2318/2406 CNL RMK END OF FLY PROGRAM NXT FCST BY 240000Z